sensor_id;sensor_type;location;lat;lon;timestamp;pressure;altitude;pressure_sealevel;temperature;humidity
71126;BME280;58785;55.566;38.058;2023-09-19T00:02:03;100863.03;;;11.17;83.19
71126;BME280;58785;55.566;38.058;2023-09-19T00:04:38;100862.69;;;11.10;83.59
71126;BME280;58785;55.566;38.058;2023-09-19T00:07:05;100864.94;;;11.05;84.05
71126;BME280;58785;55.566;38.058;2023-09-19T00:09:31;100874.34;;;11.09;83.69
71126;BME280;58785;55.566;38.058;2023-09-19T00:12:06;100877.03;;;11.09;82.86
71126;BME280;58785;55.566;38.058;2023-09-19T00:14:32;100877.56;;;11.03;83.42
71126;BME280;58785;55.566;38.058;2023-09-19T00:17:04;100882.78;;;11.05;83.28
71126;BME280;58785;55.566;38.058;2023-09-19T00:19:35;100878.28;;;11.05;83.44
71126;BME280;58785;55.566;38.058;2023-09-19T00:22:01;100875.28;;;10.99;83.83
71126;BME280;58785;55.566;38.058;2023-09-19T00:24:27;100884.84;;;11.01;83.86
71126;BME280;58785;55.566;38.058;2023-09-19T00:26:54;100875.41;;;10.97;83.63
71126;BME280;58785;55.566;38.058;2023-09-19T00:29:21;100871.91;;;10.97;83.64
71126;BME280;58785;55.566;38.058;2023-09-19T00:31:49;100865.72;;;10.96;83.69
71126;BME280;58785;55.566;38.058;2023-09-19T00:34:15;100874.84;;;10.93;84.13
71126;BME280;58785;55.566;38.058;2023-09-19T00:36:42;100876.19;;;10.88;84.06
71126;BME280;58785;55.566;38.058;2023-09-19T00:39:09;100870.53;;;10.81;84.17
71126;BME280;58785;55.566;38.058;2023-09-19T00:41:36;100877.69;;;10.81;84.08
71126;BME280;58785;55.566;38.058;2023-09-19T00:44:03;100879.63;;;10.79;83.58
71126;BME280;58785;55.566;38.058;2023-09-19T00:46:30;100880.47;;;10.79;83.39
71126;BME280;58785;55.566;38.058;2023-09-19T00:48:58;100889.47;;;10.78;83.67
71126;BME280;58785;55.566;38.058;2023-09-19T00:51:26;100887.91;;;10.76;83.06
71126;BME280;58785;55.566;38.058;2023-09-19T00:53:54;100890.84;;;10.73;83.42
71126;BME280;58785;55.566;38.058;2023-09-19T00:56:20;100888.91;;;10.75;83.78
71126;BME280;58785;55.566;38.058;2023-09-19T00:58:47;100887.19;;;10.74;83.50
71126;BME280;58785;55.566;38.058;2023-09-19T01:01:13;100882.94;;;10.71;83.62
71126;BME280;58785;55.566;38.058;2023-09-19T01:03:44;100891.69;;;10.73;83.59
71126;BME280;58785;55.566;38.058;2023-09-19T01:06:10;100891.69;;;10.73;83.82
71126;BME280;58785;55.566;38.058;2023-09-19T01:08:42;100878.72;;;10.69;83.71
71126;BME280;58785;55.566;38.058;2023-09-19T01:11:13;100881.13;;;10.72;83.21
71126;BME280;58785;55.566;38.058;2023-09-19T01:13:47;100888.91;;;10.75;83.02
71126;BME280;58785;55.566;38.058;2023-09-19T01:16:52;100883.56;;;10.75;83.21
71126;BME280;58785;55.566;38.058;2023-09-19T01:19:24;100883.28;;;10.78;82.85
71126;BME280;58785;55.566;38.058;2023-09-19T01:22:21;100877.09;;;10.77;83.33
71126;BME280;58785;55.566;38.058;2023-09-19T01:25:33;100873.88;;;10.74;83.29
71126;BME280;58785;55.566;38.058;2023-09-19T01:31:09;100870.59;;;10.70;82.98
71126;BME280;58785;55.566;38.058;2023-09-19T01:33:58;100879.56;;;10.69;82.89
71126;BME280;58785;55.566;38.058;2023-09-19T01:36:35;100872.69;;;10.67;82.88
71126;BME280;58785;55.566;38.058;2023-09-19T01:39:07;100867.34;;;10.67;83.12
71126;BME280;58785;55.566;38.058;2023-09-19T01:47:20;100859.22;;;10.68;83.29
71126;BME280;58785;55.566;38.058;2023-09-19T01:50:07;100854.44;;;10.72;82.33
71126;BME280;58785;55.566;38.058;2023-09-19T01:55:20;100849.97;;;10.72;82.81
71126;BME280;58785;55.566;38.058;2023-09-19T02:00:49;100855.28;;;10.72;82.39
71126;BME280;58785;55.566;38.058;2023-09-19T02:03:20;100861.59;;;10.71;83.14
71126;BME280;58785;55.566;38.058;2023-09-19T02:05:50;100857.00;;;10.73;82.37
71126;BME280;58785;55.566;38.058;2023-09-19T02:08:18;100845.75;;;10.70;83.20
71126;BME280;58785;55.566;38.058;2023-09-19T02:10:45;100856.41;;;10.70;82.60
71126;BME280;58785;55.566;38.058;2023-09-19T02:13:19;100861.03;;;10.68;83.08
71126;BME280;58785;55.566;38.058;2023-09-19T02:15:46;100845.81;;;10.58;82.96
71126;BME280;58785;55.566;38.058;2023-09-19T02:18:13;100851.63;;;10.63;82.35
71126;BME280;58785;55.566;38.058;2023-09-19T02:20:40;100844.97;;;10.58;82.84
71126;BME280;58785;55.566;38.058;2023-09-19T02:23:07;100844.81;;;10.59;82.75
71126;BME280;58785;55.566;38.058;2023-09-19T02:25:34;100848.34;;;10.60;83.18
71126;BME280;58785;55.566;38.058;2023-09-19T02:28:01;100841.72;;;10.54;82.71
71126;BME280;58785;55.566;38.058;2023-09-19T02:30:29;100849.00;;;10.52;82.67
71126;BME280;58785;55.566;38.058;2023-09-19T02:32:55;100834.94;;;10.50;82.81
71126;BME280;58785;55.566;38.058;2023-09-19T02:35:21;100847.28;;;10.51;82.79
71126;BME280;58785;55.566;38.058;2023-09-19T02:37:48;100850.94;;;10.50;83.32
71126;BME280;58785;55.566;38.058;2023-09-19T02:40:15;100851.19;;;10.47;82.76
71126;BME280;58785;55.566;38.058;2023-09-19T02:42:46;100837.53;;;10.41;83.43
71126;BME280;58785;55.566;38.058;2023-09-19T02:45:16;100838.28;;;10.31;82.93
71126;BME280;58785;55.566;38.058;2023-09-19T02:47:46;100836.72;;;10.29;82.86
71126;BME280;58785;55.566;38.058;2023-09-19T02:50:14;100837.97;;;10.25;82.91
71126;BME280;58785;55.566;38.058;2023-09-19T02:52:42;100837.13;;;10.24;83.11
71126;BME280;58785;55.566;38.058;2023-09-19T02:55:11;100833.75;;;10.22;82.84
71126;BME280;58785;55.566;38.058;2023-09-19T02:57:38;100822.97;;;10.13;83.16
71126;BME280;58785;55.566;38.058;2023-09-19T03:00:08;100824.91;;;10.11;82.83
71126;BME280;58785;55.566;38.058;2023-09-19T03:02:36;100826.84;;;10.08;83.27
71126;BME280;58785;55.566;38.058;2023-09-19T03:05:04;100827.56;;;10.11;82.76
71126;BME280;58785;55.566;38.058;2023-09-19T03:07:30;100833.16;;;10.07;82.68
71126;BME280;58785;55.566;38.058;2023-09-19T03:09:56;100835.94;;;10.06;82.95
71126;BME280;58785;55.566;38.058;2023-09-19T03:12:22;100850.97;;;10.07;82.87
71126;BME280;58785;55.566;38.058;2023-09-19T03:14:48;100850.84;;;10.08;83.22
71126;BME280;58785;55.566;38.058;2023-09-19T03:17:16;100832.72;;;10.02;83.22
71126;BME280;58785;55.566;38.058;2023-09-19T03:19:41;100850.97;;;10.07;83.48
71126;BME280;58785;55.566;38.058;2023-09-19T03:22:07;100840.31;;;10.07;82.53
71126;BME280;58785;55.566;38.058;2023-09-19T03:24:33;100852.06;;;10.04;82.51
71126;BME280;58785;55.566;38.058;2023-09-19T03:27:01;100857.41;;;10.04;82.89
71126;BME280;58785;55.566;38.058;2023-09-19T03:29:26;100848.69;;;10.02;82.63
71126;BME280;58785;55.566;38.058;2023-09-19T03:31:52;100856.28;;;10.07;82.81
71126;BME280;58785;55.566;38.058;2023-09-19T03:34:20;100845.06;;;10.03;82.37
71126;BME280;58785;55.566;38.058;2023-09-19T03:36:46;100837.16;;;10.02;82.83
71126;BME280;58785;55.566;38.058;2023-09-19T03:39:12;100842.72;;;10.10;82.47
71126;BME280;58785;55.566;38.058;2023-09-19T03:41:41;100839.31;;;10.08;82.37
71126;BME280;58785;55.566;38.058;2023-09-19T03:44:07;100845.59;;;10.18;82.25
71126;BME280;58785;55.566;38.058;2023-09-19T03:46:33;100831.09;;;10.22;82.08
71126;BME280;58785;55.566;38.058;2023-09-19T03:49:01;100840.13;;;10.31;82.00
71126;BME280;58785;55.566;38.058;2023-09-19T03:51:28;100839.47;;;10.39;82.45
71126;BME280;58785;55.566;38.058;2023-09-19T03:53:54;100839.69;;;10.47;81.50
71126;BME280;58785;55.566;38.058;2023-09-19T03:56:20;100842.81;;;10.52;81.66
71126;BME280;58785;55.566;38.058;2023-09-19T03:58:46;100844.38;;;10.54;81.63
71126;BME280;58785;55.566;38.058;2023-09-19T04:01:12;100852.13;;;10.57;81.48
71126;BME280;58785;55.566;38.058;2023-09-19T04:03:39;100847.34;;;10.61;81.96
71126;BME280;58785;55.566;38.058;2023-09-19T04:06:13;100848.94;;;10.63;81.97
71126;BME280;58785;55.566;38.058;2023-09-19T04:08:39;100846.28;;;10.63;81.93
71126;BME280;58785;55.566;38.058;2023-09-19T04:11:05;100839.00;;;10.65;81.51
71126;BME280;58785;55.566;38.058;2023-09-19T04:13:31;100837.03;;;10.68;82.24
71126;BME280;58785;55.566;38.058;2023-09-19T04:15:57;100836.19;;;10.67;81.93
71126;BME280;58785;55.566;38.058;2023-09-19T04:18:23;100836.75;;;10.71;82.06
71126;BME280;58785;55.566;38.058;2023-09-19T04:20:55;100831.19;;;10.74;82.49
71126;BME280;58785;55.566;38.058;2023-09-19T04:23:21;100824.53;;;10.68;82.36
71126;BME280;58785;55.566;38.058;2023-09-19T04:25:47;100816.16;;;10.73;81.81
71126;BME280;58785;55.566;38.058;2023-09-19T04:28:15;100814.44;;;10.72;82.35
71126;BME280;58785;55.566;38.058;2023-09-19T04:30:43;100819.00;;;10.81;81.76
71126;BME280;58785;55.566;38.058;2023-09-19T04:33:08;100816.31;;;10.81;82.10
71126;BME280;58785;55.566;38.058;2023-09-19T04:35:34;100813.41;;;10.84;82.23
71126;BME280;58785;55.566;38.058;2023-09-19T04:38:00;100813.00;;;10.88;81.57
71126;BME280;58785;55.566;38.058;2023-09-19T04:40:26;100810.78;;;10.93;81.35
71126;BME280;58785;55.566;38.058;2023-09-19T04:42:56;100818.84;;;11.03;82.07
71126;BME280;58785;55.566;38.058;2023-09-19T04:45:24;100808.59;;;11.08;82.13
71126;BME280;58785;55.566;38.058;2023-09-19T04:47:54;100804.72;;;11.12;81.41
71126;BME280;58785;55.566;38.058;2023-09-19T04:50:20;100817.13;;;11.23;81.68
71126;BME280;58785;55.566;38.058;2023-09-19T04:52:49;100818.38;;;11.29;81.41
71126;BME280;58785;55.566;38.058;2023-09-19T04:55:18;100816.88;;;11.36;81.18
71126;BME280;58785;55.566;38.058;2023-09-19T04:57:50;100819.16;;;11.50;80.69
71126;BME280;58785;55.566;38.058;2023-09-19T05:00:22;100821.31;;;11.56;80.88
71126;BME280;58785;55.566;38.058;2023-09-19T05:02:51;100814.97;;;11.57;81.35
71126;BME280;58785;55.566;38.058;2023-09-19T05:05:18;100808.66;;;11.58;80.38
71126;BME280;58785;55.566;38.058;2023-09-19T05:07:46;100809.22;;;11.62;81.72
71126;BME280;58785;55.566;38.058;2023-09-19T05:10:13;100820.03;;;11.60;81.58
71126;BME280;58785;55.566;38.058;2023-09-19T05:12:40;100811.31;;;11.58;81.05
71126;BME280;58785;55.566;38.058;2023-09-19T05:15:07;100808.25;;;11.63;81.26
71126;BME280;58785;55.566;38.058;2023-09-19T05:17:34;100809.50;;;11.59;81.80
71126;BME280;58785;55.566;38.058;2023-09-19T05:20:01;100788.38;;;11.46;82.07
71126;BME280;58785;55.566;38.058;2023-09-19T05:22:39;100807.78;;;11.48;82.30
71126;BME280;58785;55.566;38.058;2023-09-19T05:25:07;100805.66;;;11.51;82.44
71126;BME280;58785;55.566;38.058;2023-09-19T05:27:33;100813.56;;;11.53;82.65
71126;BME280;58785;55.566;38.058;2023-09-19T05:29:59;100815.13;;;11.56;82.30
71126;BME280;58785;55.566;38.058;2023-09-19T05:32:25;100811.47;;;11.66;81.87
71126;BME280;58785;55.566;38.058;2023-09-19T05:34:51;100823.88;;;11.77;81.84
71126;BME280;58785;55.566;38.058;2023-09-19T05:37:19;100814.22;;;11.86;82.12
71126;BME280;58785;55.566;38.058;2023-09-19T05:39:45;100809.28;;;11.91;82.22
71126;BME280;58785;55.566;38.058;2023-09-19T05:42:11;100806.47;;;11.92;81.56
71126;BME280;58785;55.566;38.058;2023-09-19T05:44:37;100797.22;;;11.96;82.59
71126;BME280;58785;55.566;38.058;2023-09-19T05:47:05;100804.09;;;11.99;82.48
71126;BME280;58785;55.566;38.058;2023-09-19T05:49:35;100794.09;;;12.01;81.80
71126;BME280;58785;55.566;38.058;2023-09-19T05:52:07;100791.44;;;12.11;81.99
71126;BME280;58785;55.566;38.058;2023-09-19T05:54:33;100791.72;;;12.27;81.39
71126;BME280;58785;55.566;38.058;2023-09-19T05:57:01;100788.50;;;12.43;81.65
71126;BME280;58785;55.566;38.058;2023-09-19T05:59:28;100794.22;;;12.57;81.29
71126;BME280;58785;55.566;38.058;2023-09-19T06:01:54;100778.56;;;12.62;80.71
71126;BME280;58785;55.566;38.058;2023-09-19T06:04:20;100796.16;;;12.84;80.54
71126;BME280;58785;55.566;38.058;2023-09-19T06:06:47;100791.47;;;12.96;80.47
71126;BME280;58785;55.566;38.058;2023-09-19T06:09:14;100790.44;;;13.07;80.34
71126;BME280;58785;55.566;38.058;2023-09-19T06:11:42;100780.25;;;13.20;80.03
71126;BME280;58785;55.566;38.058;2023-09-19T06:14:08;100783.13;;;13.36;79.75
71126;BME280;58785;55.566;38.058;2023-09-19T06:16:39;100782.78;;;13.49;79.79
71126;BME280;58785;55.566;38.058;2023-09-19T06:19:07;100770.63;;;13.55;79.54
71126;BME280;58785;55.566;38.058;2023-09-19T06:21:42;100779.84;;;13.70;79.15
71126;BME280;58785;55.566;38.058;2023-09-19T06:24:08;100786.72;;;13.72;79.27
71126;BME280;58785;55.566;38.058;2023-09-19T06:26:33;100780.41;;;13.73;79.20
71126;BME280;58785;55.566;38.058;2023-09-19T06:29:00;100776.56;;;13.76;79.08
71126;BME280;58785;55.566;38.058;2023-09-19T06:31:25;100773.91;;;13.94;79.30
71126;BME280;58785;55.566;38.058;2023-09-19T06:33:54;100774.44;;;14.15;78.53
71126;BME280;58785;55.566;38.058;2023-09-19T06:36:20;100766.66;;;14.30;78.25
71126;BME280;58785;55.566;38.058;2023-09-19T06:38:46;100764.81;;;14.48;78.07
71126;BME280;58785;55.566;38.058;2023-09-19T06:41:13;100749.47;;;14.58;77.69
71126;BME280;58785;55.566;38.058;2023-09-19T06:43:40;100766.53;;;14.75;77.07
71126;BME280;58785;55.566;38.058;2023-09-19T06:46:06;100766.97;;;14.97;77.26
71126;BME280;58785;55.566;38.058;2023-09-19T06:48:33;100755.03;;;15.25;76.04
71126;BME280;58785;55.566;38.058;2023-09-19T06:50:59;100770.88;;;15.52;75.95
71126;BME280;58785;55.566;38.058;2023-09-19T06:53:33;100772.31;;;15.65;75.66
71126;BME280;58785;55.566;38.058;2023-09-19T06:56:02;100766.09;;;15.64;75.88
71126;BME280;58785;55.566;38.058;2023-09-19T06:58:28;100762.59;;;15.64;75.78
71126;BME280;58785;55.566;38.058;2023-09-19T07:00:54;100751.81;;;15.72;75.86
71126;BME280;58785;55.566;38.058;2023-09-19T07:03:20;100749.34;;;15.87;75.09
71126;BME280;58785;55.566;38.058;2023-09-19T07:05:48;100761.13;;;16.10;74.93
71126;BME280;58785;55.566;38.058;2023-09-19T07:08:14;100756.78;;;16.25;74.32
71126;BME280;58785;55.566;38.058;2023-09-19T07:10:42;100767.00;;;16.46;74.23
71126;BME280;58785;55.566;38.058;2023-09-19T07:13:15;100765.81;;;16.65;73.68
71126;BME280;58785;55.566;38.058;2023-09-19T07:15:44;100767.19;;;16.69;73.43
71126;BME280;58785;55.566;38.058;2023-09-19T07:18:16;100779.28;;;16.73;73.46
71126;BME280;58785;55.566;38.058;2023-09-19T07:20:44;100770.00;;;16.67;73.31
71126;BME280;58785;55.566;38.058;2023-09-19T07:23:17;100762.63;;;16.70;73.58
71126;BME280;58785;55.566;38.058;2023-09-19T07:25:44;100762.09;;;16.82;72.94
71126;BME280;58785;55.566;38.058;2023-09-19T07:28:12;100751.09;;;17.00;72.77
71126;BME280;58785;55.566;38.058;2023-09-19T07:30:38;100750.34;;;17.22;72.37
71126;BME280;58785;55.566;38.058;2023-09-19T07:33:05;100751.53;;;17.20;72.18
71126;BME280;58785;55.566;38.058;2023-09-19T07:35:32;100772.41;;;17.26;72.20
71126;BME280;58785;55.566;38.058;2023-09-19T07:37:59;100763.56;;;17.40;71.98
71126;BME280;58785;55.566;38.058;2023-09-19T07:40:27;100767.06;;;17.49;71.47
71126;BME280;58785;55.566;38.058;2023-09-19T07:42:55;100763.84;;;17.53;71.60
71126;BME280;58785;55.566;38.058;2023-09-19T07:45:21;100760.16;;;17.55;71.41
71126;BME280;58785;55.566;38.058;2023-09-19T07:47:50;100755.69;;;17.70;71.10
71126;BME280;58785;55.566;38.058;2023-09-19T07:50:17;100747.69;;;17.85;70.83
71126;BME280;58785;55.566;38.058;2023-09-19T07:52:47;100746.41;;;17.72;70.77
71126;BME280;58785;55.566;38.058;2023-09-19T07:55:13;100750.50;;;17.60;71.44
71126;BME280;58785;55.566;38.058;2023-09-19T07:57:45;100744.63;;;17.57;71.49
71126;BME280;58785;55.566;38.058;2023-09-19T08:00:12;100746.31;;;17.58;71.51
71126;BME280;58785;55.566;38.058;2023-09-19T08:02:39;100747.16;;;17.58;71.79
71126;BME280;58785;55.566;38.058;2023-09-19T08:05:10;100738.50;;;17.63;71.53
71126;BME280;58785;55.566;38.058;2023-09-19T08:07:41;100734.13;;;17.70;71.28
71126;BME280;58785;55.566;38.058;2023-09-19T08:10:08;100730.59;;;17.69;71.32
71126;BME280;58785;55.566;38.058;2023-09-19T08:12:39;100736.28;;;17.74;71.27
71126;BME280;58785;55.566;38.058;2023-09-19T08:15:15;100736.13;;;17.76;71.26
71126;BME280;58785;55.566;38.058;2023-09-19T08:17:42;100724.31;;;17.69;71.45
71126;BME280;58785;55.566;38.058;2023-09-19T08:20:09;100727.38;;;17.66;71.40
71126;BME280;58785;55.566;38.058;2023-09-19T08:22:49;100723.00;;;17.65;71.65
71126;BME280;58785;55.566;38.058;2023-09-19T08:25:18;100720.47;;;17.63;71.42
71126;BME280;58785;55.566;38.058;2023-09-19T08:27:46;100722.16;;;17.64;71.53
71126;BME280;58785;55.566;38.058;2023-09-19T08:30:17;100733.78;;;17.65;71.50
71126;BME280;58785;55.566;38.058;2023-09-19T08:32:43;100720.13;;;17.74;71.31
71126;BME280;58785;55.566;38.058;2023-09-19T08:35:13;100713.75;;;17.90;71.16
71126;BME280;58785;55.566;38.058;2023-09-19T08:37:39;100718.19;;;18.06;70.68
71126;BME280;58785;55.566;38.058;2023-09-19T08:40:06;100706.44;;;18.14;70.73
71126;BME280;58785;55.566;38.058;2023-09-19T08:43:06;100692.63;;;18.17;70.18
71126;BME280;58785;55.566;38.058;2023-09-19T08:45:33;100672.75;;;18.09;70.54
71126;BME280;58785;55.566;38.058;2023-09-19T08:50:42;100684.91;;;18.28;70.08
71126;BME280;58785;55.566;38.058;2023-09-19T08:53:22;100686.78;;;18.43;69.69
71126;BME280;58785;55.566;38.058;2023-09-19T08:55:54;100681.38;;;18.43;69.75
71126;BME280;58785;55.566;38.058;2023-09-19T08:58:26;100683.72;;;18.46;69.55
71126;BME280;58785;55.566;38.058;2023-09-19T09:00:56;100672.44;;;18.42;69.94
71126;BME280;58785;55.566;38.058;2023-09-19T09:03:24;100679.16;;;18.46;69.61
71126;BME280;58785;55.566;38.058;2023-09-19T09:05:51;100670.13;;;18.54;69.50
71126;BME280;58785;55.566;38.058;2023-09-19T09:08:19;100675.34;;;18.55;69.43
71126;BME280;58785;55.566;38.058;2023-09-19T09:10:47;100670.59;;;18.57;69.22
71126;BME280;58785;55.566;38.058;2023-09-19T09:13:14;100668.69;;;18.66;69.22
71126;BME280;58785;55.566;38.058;2023-09-19T09:15:42;100675.38;;;18.70;68.96
71126;BME280;58785;55.566;38.058;2023-09-19T09:18:10;100676.50;;;18.76;69.04
71126;BME280;58785;55.566;38.058;2023-09-19T09:20:36;100678.75;;;18.87;68.73
71126;BME280;58785;55.566;38.058;2023-09-19T09:23:02;100678.25;;;18.98;68.13
71126;BME280;58785;55.566;38.058;2023-09-19T09:25:53;100679.16;;;19.20;67.72
71126;BME280;58785;55.566;38.058;2023-09-19T09:28:34;100681.69;;;19.43;67.71
71126;BME280;58785;55.566;38.058;2023-09-19T09:31:01;100661.91;;;19.57;67.37
71126;BME280;58785;55.566;38.058;2023-09-19T09:33:35;100672.47;;;19.73;66.72
71126;BME280;58785;55.566;38.058;2023-09-19T09:36:02;100671.59;;;19.88;66.90
71126;BME280;58785;55.566;38.058;2023-09-19T09:38:43;100670.97;;;19.92;66.69
71126;BME280;58785;55.566;38.058;2023-09-19T09:41:09;100668.28;;;19.92;66.82
71126;BME280;58785;55.566;38.058;2023-09-19T09:43:37;100659.66;;;19.82;66.79
71126;BME280;58785;55.566;38.058;2023-09-19T09:46:20;100662.44;;;19.67;67.06
71126;BME280;58785;55.566;38.058;2023-09-19T09:48:57;100655.28;;;19.60;67.09
71126;BME280;58785;55.566;38.058;2023-09-19T09:54:25;100645.69;;;19.78;67.47
71126;BME280;58785;55.566;38.058;2023-09-19T09:56:56;100645.41;;;19.95;66.98
71126;BME280;58785;55.566;38.058;2023-09-19T09:59:50;100648.63;;;20.05;66.52
71126;BME280;58785;55.566;38.058;2023-09-19T10:02:18;100630.50;;;20.05;66.71
71126;BME280;58785;55.566;38.058;2023-09-19T10:04:56;100636.44;;;20.22;66.44
71126;BME280;58785;55.566;38.058;2023-09-19T10:07:46;100636.72;;;20.34;66.37
71126;BME280;58785;55.566;38.058;2023-09-19T10:10:35;100632.84;;;20.43;66.31
71126;BME280;58785;55.566;38.058;2023-09-19T10:13:11;100638.38;;;20.56;65.99
71126;BME280;58785;55.566;38.058;2023-09-19T10:15:46;100644.66;;;20.63;65.71
71126;BME280;58785;55.566;38.058;2023-09-19T10:18:21;100646.81;;;20.75;65.42
71126;BME280;58785;55.566;38.058;2023-09-19T10:20:48;100636.00;;;20.81;65.40
71126;BME280;58785;55.566;38.058;2023-09-19T10:23:19;100632.50;;;20.94;65.00
71126;BME280;58785;55.566;38.058;2023-09-19T10:25:50;100622.53;;;21.01;64.89
71126;BME280;58785;55.566;38.058;2023-09-19T10:28:17;100609.41;;;21.11;64.75
71126;BME280;58785;55.566;38.058;2023-09-19T10:30:49;100606.94;;;21.23;64.56
71126;BME280;58785;55.566;38.058;2023-09-19T10:33:22;100596.72;;;21.18;64.96
71126;BME280;58785;55.566;38.058;2023-09-19T10:35:52;100601.94;;;21.20;64.97
71126;BME280;58785;55.566;38.058;2023-09-19T10:38:26;100595.25;;;21.22;64.81
71126;BME280;58785;55.566;38.058;2023-09-19T10:40:57;100595.47;;;21.21;64.49
71126;BME280;58785;55.566;38.058;2023-09-19T10:43:29;100586.66;;;21.06;64.79
71126;BME280;58785;55.566;38.058;2023-09-19T10:46:01;100600.63;;;21.03;65.01
71126;BME280;58785;55.566;38.058;2023-09-19T10:48:29;100592.88;;;20.93;65.06
71126;BME280;58785;55.566;38.058;2023-09-19T10:51:27;100597.25;;;20.94;65.06
71126;BME280;58785;55.566;38.058;2023-09-19T10:54:05;100596.19;;;20.88;64.99
71126;BME280;58785;55.566;38.058;2023-09-19T10:56:36;100607.47;;;20.85;64.92
71126;BME280;58785;55.566;38.058;2023-09-19T11:01:44;100591.75;;;20.74;65.31
71126;BME280;58785;55.566;38.058;2023-09-19T11:04:30;100601.97;;;20.72;65.33
71126;BME280;58785;55.566;38.058;2023-09-19T11:07:10;100592.75;;;20.60;65.41
71126;BME280;58785;55.566;38.058;2023-09-19T11:09:50;100598.19;;;20.66;65.57
71126;BME280;58785;55.566;38.058;2023-09-19T11:14:58;100586.31;;;20.74;65.48
71126;BME280;58785;55.566;38.058;2023-09-19T11:17:43;100586.38;;;20.81;65.44
71126;BME280;58785;55.566;38.058;2023-09-19T11:20:19;100582.03;;;20.86;65.27
71126;BME280;58785;55.566;38.058;2023-09-19T11:30:48;100557.81;;;20.91;65.09
71126;BME280;58785;55.566;38.058;2023-09-19T11:33:30;100568.72;;;20.98;64.80
71126;BME280;58785;55.566;38.058;2023-09-19T11:36:00;100557.44;;;21.01;64.92
71126;BME280;58785;55.566;38.058;2023-09-19T11:43:49;100567.09;;;21.17;64.81
71126;BME280;58785;55.566;38.058;2023-09-19T11:46:21;100557.47;;;21.21;64.79
71126;BME280;58785;55.566;38.058;2023-09-19T11:48:49;100555.03;;;21.26;64.72
71126;BME280;58785;55.566;38.058;2023-09-19T11:51:20;100560.03;;;21.29;64.71
71126;BME280;58785;55.566;38.058;2023-09-19T11:53:56;100545.03;;;21.27;65.00
71126;BME280;58785;55.566;38.058;2023-09-19T11:56:27;100552.75;;;21.43;64.94
71126;BME280;58785;55.566;38.058;2023-09-19T11:58:55;100554.41;;;21.50;64.79
71126;BME280;58785;55.566;38.058;2023-09-19T12:01:29;100557.38;;;21.56;64.84
71126;BME280;58785;55.566;38.058;2023-09-19T12:03:57;100557.13;;;21.64;64.50
71126;BME280;58785;55.566;38.058;2023-09-19T12:06:25;100547.31;;;21.63;64.54
71126;BME280;58785;55.566;38.058;2023-09-19T12:08:53;100547.75;;;21.60;64.64
71126;BME280;58785;55.566;38.058;2023-09-19T12:11:21;100545.88;;;21.60;64.58
71126;BME280;58785;55.566;38.058;2023-09-19T12:13:49;100548.38;;;21.55;64.79
71126;BME280;58785;55.566;38.058;2023-09-19T12:16:16;100539.41;;;21.48;64.81
71126;BME280;58785;55.566;38.058;2023-09-19T12:18:44;100534.81;;;21.55;64.96
71126;BME280;58785;55.566;38.058;2023-09-19T12:21:29;100535.44;;;21.57;64.84
71126;BME280;58785;55.566;38.058;2023-09-19T12:26:44;100532.09;;;21.55;65.34
71126;BME280;58785;55.566;38.058;2023-09-19T12:29:21;100520.41;;;21.55;65.33
71126;BME280;58785;55.566;38.058;2023-09-19T12:31:55;100508.50;;;21.56;65.49
71126;BME280;58785;55.566;38.058;2023-09-19T12:34:28;100522.09;;;21.56;65.36
71126;BME280;58785;55.566;38.058;2023-09-19T12:37:10;100513.31;;;21.47;65.32
71126;BME280;58785;55.566;38.058;2023-09-19T12:39:43;100518.13;;;21.45;65.54
71126;BME280;58785;55.566;38.058;2023-09-19T12:42:15;100502.44;;;21.40;65.60
71126;BME280;58785;55.566;38.058;2023-09-19T12:44:43;100508.50;;;21.42;65.68
71126;BME280;58785;55.566;38.058;2023-09-19T12:47:15;100496.41;;;21.38;65.72
71126;BME280;58785;55.566;38.058;2023-09-19T12:52:44;100489.50;;;21.42;65.76
71126;BME280;58785;55.566;38.058;2023-09-19T12:55:28;100504.56;;;21.45;65.56
71126;BME280;58785;55.566;38.058;2023-09-19T12:58:15;100486.19;;;21.47;66.17
71126;BME280;58785;55.566;38.058;2023-09-19T13:00:43;100483.69;;;21.45;65.96
71126;BME280;58785;55.566;38.058;2023-09-19T13:03:26;100485.75;;;21.43;65.92
71126;BME280;58785;55.566;38.058;2023-09-19T13:05:54;100490.97;;;21.45;66.11
71126;BME280;58785;55.566;38.058;2023-09-19T13:08:24;100488.44;;;21.43;66.15
71126;BME280;58785;55.566;38.058;2023-09-19T13:11:11;100483.44;;;21.40;66.07
71126;BME280;58785;55.566;38.058;2023-09-19T13:13:49;100487.63;;;21.43;66.16
71126;BME280;58785;55.566;38.058;2023-09-19T13:16:20;100492.44;;;21.41;66.35
71126;BME280;58785;55.566;38.058;2023-09-19T13:18:54;100478.47;;;21.37;66.43
71126;BME280;58785;55.566;38.058;2023-09-19T13:21:32;100483.44;;;21.40;66.05
71126;BME280;58785;55.566;38.058;2023-09-19T13:24:22;100479.06;;;21.39;66.41
71126;BME280;58785;55.566;38.058;2023-09-19T13:26:56;100471.75;;;21.33;66.47
71126;BME280;58785;55.566;38.058;2023-09-19T13:29:23;100482.00;;;21.31;66.34
71126;BME280;58785;55.566;38.058;2023-09-19T13:31:52;100474.84;;;21.23;66.54
71126;BME280;58785;55.566;38.058;2023-09-19T13:34:19;100463.38;;;21.21;66.74
71126;BME280;58785;55.566;38.058;2023-09-19T13:36:46;100463.59;;;21.20;66.95
71126;BME280;58785;55.566;38.058;2023-09-19T13:39:18;100466.13;;;21.15;67.01
71126;BME280;58785;55.566;38.058;2023-09-19T13:41:45;100459.84;;;21.08;66.95